createdAt,value
2023-02-03T00:01:24.927Z,16.07
2023-02-03T00:03:51.399Z,13.73
2023-02-03T00:06:17.889Z,14.40
2023-02-03T00:08:44.419Z,15.73
2023-02-03T00:11:10.912Z,12.90
2023-02-03T00:13:37.480Z,19.03
2023-02-03T00:16:06.512Z,16.50
2023-02-03T00:18:33.631Z,10.93
2023-02-03T00:21:00.095Z,11.93
2023-02-03T00:23:30.074Z,15.53
2023-02-03T00:25:56.519Z,10.33
2023-02-03T00:28:22.981Z,14.00
2023-02-03T00:30:49.675Z,12.13
2023-02-03T00:33:16.217Z,14.27
2023-02-03T00:35:42.670Z,13.47
2023-02-03T00:38:09.649Z,13.50
2023-02-03T00:40:36.093Z,11.90
2023-02-03T00:43:02.535Z,19.23
2023-02-03T00:45:29.253Z,15.63
2023-02-03T00:47:55.652Z,11.90
2023-02-03T00:50:22.107Z,11.20
2023-02-03T00:52:48.523Z,11.60
2023-02-03T00:55:15.040Z,15.73
2023-02-03T00:57:41.469Z,10.97
2023-02-03T01:00:08.469Z,8.50
2023-02-03T01:02:35.427Z,8.50
2023-02-03T01:05:01.932Z,10.07
2023-02-03T01:07:31.634Z,11.17
2023-02-03T01:09:58.044Z,6.97
2023-02-03T01:12:24.417Z,9.70
2023-02-03T01:14:50.880Z,10.00
2023-02-03T01:17:17.285Z,9.93
2023-02-03T01:19:43.752Z,10.10
2023-02-03T01:22:10.159Z,9.17
2023-02-03T01:24:36.637Z,10.13
2023-02-03T01:27:03.082Z,9.60
2023-02-03T01:29:29.502Z,8.83
2023-02-03T01:31:55.999Z,12.70
2023-02-03T01:34:22.508Z,9.67
2023-02-03T01:36:49.086Z,13.40
2023-02-03T01:39:15.513Z,8.07
2023-02-03T01:41:41.910Z,9.73
2023-02-03T01:44:42.062Z,9.87
2023-02-03T01:47:17.662Z,11.60
2023-02-03T01:49:52.056Z,10.10
2023-02-03T01:52:18.660Z,10.43
2023-02-03T01:54:48.339Z,6.83
2023-02-03T01:57:18.835Z,10.47
2023-02-03T01:59:45.820Z,10.27
2023-02-03T02:02:13.067Z,9.20
2023-02-03T02:05:07.147Z,11.60
2023-02-03T02:07:34.814Z,14.57
2023-02-03T02:10:01.379Z,10.17
2023-02-03T02:12:27.767Z,9.80
2023-02-03T02:14:54.572Z,12.10
2023-02-03T02:17:52.733Z,9.77
2023-02-03T02:21:01.401Z,10.73
2023-02-03T02:24:00.169Z,15.47
2023-02-03T02:26:48.170Z,7.97
2023-02-03T02:29:33.295Z,12.37
2023-02-03T02:32:16.474Z,16.33
2023-02-03T02:35:12.110Z,9.77
2023-02-03T02:37:48.426Z,10.77
2023-02-03T02:40:38.118Z,11.13
2023-02-03T02:43:10.801Z,10.40
2023-02-03T02:45:50.008Z,10.73
2023-02-03T02:48:25.106Z,12.53
2023-02-03T02:50:53.813Z,13.20
2023-02-03T02:53:22.825Z,14.30
2023-02-03T02:55:49.364Z,10.03
2023-02-03T02:58:18.086Z,9.37
2023-02-03T03:00:44.657Z,10.80
2023-02-03T03:03:20.160Z,10.23
2023-02-03T03:05:55.850Z,10.20
2023-02-03T03:08:32.777Z,9.73
2023-02-03T03:11:00.474Z,7.93
2023-02-03T03:13:32.462Z,6.53
2023-02-03T03:15:59.928Z,13.13
2023-02-03T03:18:33.610Z,9.80
2023-02-03T03:21:06.012Z,7.93
2023-02-03T03:23:39.472Z,9.87
2023-02-03T03:26:13.355Z,9.17
2023-02-03T03:28:48.733Z,9.53
2023-02-03T03:31:17.331Z,9.40
2023-02-03T03:33:44.174Z,12.93
2023-02-03T03:36:27.925Z,11.10
2023-02-03T03:39:04.236Z,8.93
2023-02-03T03:41:50.697Z,8.53
2023-02-03T03:44:18.723Z,11.17
2023-02-03T03:47:12.936Z,8.70
2023-02-03T03:49:41.089Z,6.10
2023-02-03T03:52:09.595Z,13.47
2023-02-03T03:54:37.641Z,7.60
2023-02-03T03:57:15.027Z,13.40
2023-02-03T03:59:44.589Z,7.97
2023-02-03T04:02:12.435Z,9.17
2023-02-03T04:04:39.767Z,6.97
2023-02-03T04:07:06.203Z,7.53
2023-02-03T04:09:32.801Z,12.00
2023-02-03T04:12:02.050Z,8.33
2023-02-03T04:14:30.464Z,11.93
2023-02-03T04:16:57.837Z,18.17
2023-02-03T04:19:24.260Z,10.80
2023-02-03T04:21:50.986Z,9.10
2023-02-03T04:24:17.470Z,11.03
2023-02-03T04:26:44.015Z,9.80
2023-02-03T04:29:10.527Z,10.00
2023-02-03T04:31:38.560Z,7.57
2023-02-03T04:34:05.644Z,10.00
2023-02-03T04:36:32.087Z,12.07
2023-02-03T04:38:58.505Z,11.83
2023-02-03T04:41:24.919Z,9.67
2023-02-03T04:43:51.345Z,8.50
2023-02-03T04:46:18.978Z,9.87
2023-02-03T04:48:45.552Z,11.53
2023-02-03T04:51:12.030Z,13.07
2023-02-03T04:53:38.463Z,13.83
2023-02-03T04:56:05.250Z,9.17
2023-02-03T04:58:31.734Z,10.13
2023-02-03T05:00:58.233Z,8.43
2023-02-03T05:03:26.262Z,12.03
2023-02-03T05:05:52.917Z,10.27
2023-02-03T05:08:19.518Z,11.17
2023-02-03T05:10:46.445Z,11.73
2023-02-03T05:13:12.832Z,11.70
2023-02-03T05:15:39.259Z,9.80
2023-02-03T05:18:05.725Z,11.23
2023-02-03T05:20:32.193Z,12.83
2023-02-03T05:22:58.859Z,9.77
2023-02-03T05:25:25.340Z,12.07
2023-02-03T05:27:51.838Z,9.57
2023-02-03T05:30:18.553Z,11.23
2023-02-03T05:32:45.070Z,8.20
2023-02-03T05:35:11.483Z,11.00
2023-02-03T05:37:37.935Z,10.57
2023-02-03T05:40:23.467Z,9.73
2023-02-03T05:42:50.323Z,12.17
2023-02-03T05:45:17.501Z,11.80
2023-02-03T05:47:43.917Z,12.10
2023-02-03T05:50:10.366Z,8.93
2023-02-03T05:52:36.801Z,12.63
2023-02-03T05:55:03.867Z,9.17
2023-02-03T05:57:32.272Z,11.87
2023-02-03T05:59:58.975Z,8.93
2023-02-03T06:02:25.540Z,9.00
2023-02-03T06:04:52.064Z,13.70
2023-02-03T06:07:18.491Z,14.23
2023-02-03T06:09:45.205Z,12.53
2023-02-03T06:12:11.663Z,12.10
2023-02-03T06:14:38.070Z,12.90
2023-02-03T06:17:04.463Z,10.97
2023-02-03T06:19:30.866Z,15.53
2023-02-03T06:21:57.334Z,9.67
2023-02-03T06:24:23.906Z,17.80
2023-02-03T06:26:50.368Z,11.00
2023-02-03T06:29:16.827Z,12.30
2023-02-03T06:31:43.313Z,12.23
2023-02-03T06:34:09.785Z,14.10
2023-02-03T06:36:36.255Z,8.87
2023-02-03T06:39:02.684Z,12.33
2023-02-03T06:41:30.606Z,9.60
2023-02-03T06:43:57.173Z,15.70
2023-02-03T06:46:28.098Z,9.43
2023-02-03T06:48:54.689Z,7.23
2023-02-03T06:51:21.135Z,15.77
2023-02-03T06:53:47.562Z,14.63
2023-02-03T06:56:13.979Z,12.40
2023-02-03T06:58:40.397Z,9.73
2023-02-03T07:01:06.829Z,12.30
2023-02-03T07:03:33.248Z,10.10
2023-02-03T07:05:59.666Z,8.13
2023-02-03T07:08:26.049Z,7.63
2023-02-03T07:10:55.721Z,11.20
2023-02-03T07:13:22.110Z,7.77
2023-02-03T07:15:48.582Z,17.57
2023-02-03T07:18:25.718Z,10.50
2023-02-03T07:21:04.826Z,10.10
2023-02-03T07:23:31.227Z,12.03
2023-02-03T07:26:04.730Z,10.37
2023-02-03T07:28:32.412Z,9.80
2023-02-03T07:30:59.229Z,6.57
2023-02-03T07:33:25.783Z,9.30
2023-02-03T07:35:56.642Z,14.33
2023-02-03T07:38:24.179Z,9.87
2023-02-03T07:40:50.635Z,14.17
2023-02-03T07:43:17.182Z,9.73
2023-02-03T07:45:43.583Z,14.27
2023-02-03T07:48:10.352Z,10.87
2023-02-03T07:50:37.086Z,9.03
2023-02-03T07:53:03.721Z,8.97
2023-02-03T07:55:30.352Z,13.83
2023-02-03T07:57:57.418Z,11.27
2023-02-03T08:00:25.006Z,18.70
2023-02-03T08:02:51.882Z,10.50
2023-02-03T08:05:18.617Z,13.57
2023-02-03T08:07:45.333Z,9.90
2023-02-03T08:10:13.112Z,9.17
2023-02-03T08:12:39.743Z,11.63
2023-02-03T08:15:06.930Z,13.87
2023-02-03T08:17:33.719Z,10.97
2023-02-03T08:20:00.415Z,10.63
2023-02-03T08:22:27.097Z,10.97
2023-02-03T08:24:53.685Z,14.80
2023-02-03T08:27:22.546Z,12.27
2023-02-03T08:29:48.982Z,16.47
2023-02-03T08:32:18.135Z,12.50
2023-02-03T08:34:44.942Z,11.93
2023-02-03T08:37:17.199Z,10.77
2023-02-03T08:39:43.980Z,10.53
2023-02-03T08:42:10.512Z,12.60
2023-02-03T08:44:39.006Z,16.67
2023-02-03T08:47:06.348Z,10.80
2023-02-03T08:49:33.161Z,18.30
2023-02-03T08:51:59.609Z,18.20
2023-02-03T08:54:26.062Z,14.10
2023-02-03T08:56:52.547Z,20.13
2023-02-03T08:59:19.038Z,16.40
2023-02-03T09:01:46.549Z,15.00
2023-02-03T09:04:13.243Z,10.93
2023-02-03T09:06:40.153Z,21.77
2023-02-03T09:09:06.629Z,15.67
2023-02-03T09:11:33.081Z,27.40
2023-02-03T09:13:59.481Z,14.63
2023-02-03T09:16:26.104Z,17.17
2023-02-03T09:18:52.679Z,13.30
2023-02-03T09:21:32.273Z,15.73
2023-02-03T09:24:03.927Z,23.43
2023-02-03T09:26:30.582Z,12.73
2023-02-03T09:28:57.977Z,14.80
2023-02-03T09:31:24.471Z,15.87
2023-02-03T09:33:50.875Z,22.20
2023-02-03T09:36:17.339Z,15.00
2023-02-03T09:38:43.907Z,21.30
2023-02-03T09:41:12.031Z,19.30
2023-02-03T09:43:44.470Z,18.83
2023-02-03T09:46:19.348Z,11.77
2023-02-03T09:48:49.441Z,19.90
2023-02-03T09:51:26.492Z,20.00
2023-02-03T09:54:25.796Z,17.30
2023-02-03T09:56:55.631Z,19.07
2023-02-03T09:59:22.885Z,24.30
2023-02-03T10:01:55.404Z,17.83
2023-02-03T10:04:40.089Z,18.40
2023-02-03T10:07:15.063Z,19.93
2023-02-03T10:10:04.533Z,31.93
2023-02-03T10:12:45.437Z,22.77
2023-02-03T10:15:20.928Z,24.30
2023-02-03T10:17:54.755Z,17.97
2023-02-03T10:20:35.772Z,24.20
2023-02-03T10:23:06.449Z,27.97
2023-02-03T10:25:49.797Z,27.83
2023-02-03T10:28:22.269Z,25.73
2023-02-03T10:31:01.432Z,18.57
2023-02-03T10:33:29.649Z,30.23
2023-02-03T10:36:22.086Z,19.23
2023-02-03T10:38:48.425Z,17.27
2023-02-03T10:41:19.271Z,26.00
2023-02-03T10:43:52.873Z,29.47
2023-02-03T10:46:30.850Z,26.30
2023-02-03T10:48:57.617Z,21.77
2023-02-03T10:51:32.108Z,37.73
2023-02-03T10:53:58.959Z,35.07
2023-02-03T10:56:38.839Z,34.53
2023-02-03T10:59:07.272Z,31.27
2023-02-03T11:01:48.021Z,27.93
2023-02-03T11:04:33.087Z,29.73
2023-02-03T11:07:02.145Z,18.87
2023-02-03T11:09:32.415Z,31.90
2023-02-03T11:12:16.339Z,37.97
2023-02-03T11:14:51.009Z,27.00
2023-02-03T11:17:27.598Z,33.37
2023-02-03T11:19:57.089Z,24.67
2023-02-03T11:22:37.375Z,23.60
2023-02-03T11:25:05.864Z,25.47
2023-02-03T11:27:33.007Z,37.27
2023-02-03T11:30:27.078Z,30.23
2023-02-03T11:32:54.021Z,24.47
2023-02-03T11:35:29.050Z,23.73
2023-02-03T11:37:57.227Z,23.47
2023-02-03T11:40:26.622Z,21.93
2023-02-03T11:42:53.135Z,25.17
2023-02-03T11:45:25.565Z,26.10
2023-02-03T11:48:31.317Z,30.33
2023-02-03T11:51:31.915Z,18.63
2023-02-03T11:54:29.911Z,29.17
2023-02-03T11:57:21.824Z,27.03
2023-02-03T12:00:00.234Z,32.77
2023-02-03T12:02:35.704Z,18.80
2023-02-03T12:05:10.964Z,32.60
2023-02-03T12:08:02.228Z,28.20
2023-02-03T12:10:41.980Z,27.47
2023-02-03T12:13:30.329Z,23.70
2023-02-03T12:16:08.911Z,23.77
2023-02-03T12:18:57.911Z,20.07
2023-02-03T12:21:29.477Z,27.60
2023-02-03T12:24:10.462Z,27.93
2023-02-03T12:27:15.236Z,27.97
2023-02-03T12:29:45.305Z,22.73
2023-02-03T12:32:30.464Z,31.87
2023-02-03T12:35:18.296Z,26.67
2023-02-03T12:37:52.948Z,19.90
2023-02-03T12:40:33.999Z,27.40
2023-02-03T12:43:15.923Z,29.07
2023-02-03T12:45:53.416Z,24.33
2023-02-03T12:48:23.720Z,30.20
2023-02-03T12:50:56.882Z,27.13
2023-02-03T12:53:31.799Z,21.73
2023-02-03T12:56:04.334Z,24.80
2023-02-03T12:58:35.486Z,25.60
2023-02-03T13:01:16.983Z,22.63
2023-02-03T13:03:57.203Z,21.83
2023-02-03T13:06:50.236Z,26.30
2023-02-03T13:09:31.915Z,21.47
2023-02-03T13:12:13.923Z,19.57
2023-02-03T13:14:52.862Z,22.87
2023-02-03T13:17:24.473Z,27.13
2023-02-03T13:20:20.241Z,19.87
2023-02-03T13:22:47.100Z,20.23
2023-02-03T13:25:24.054Z,22.27
2023-02-03T13:27:59.597Z,21.47
2023-02-03T13:30:38.237Z,21.30
2023-02-03T13:33:28.297Z,47.00
2023-02-03T13:36:20.750Z,28.53
2023-02-03T13:39:24.569Z,26.90
2023-02-03T13:41:57.008Z,27.77
2023-02-03T13:44:28.525Z,29.27
2023-02-03T13:46:57.496Z,32.13
2023-02-03T13:49:34.709Z,20.20
2023-02-03T13:52:01.273Z,20.17
2023-02-03T13:54:34.431Z,25.53
2023-02-03T13:57:04.369Z,21.30
2023-02-03T13:59:42.174Z,25.90
2023-02-03T14:02:24.431Z,33.20
2023-02-03T14:04:55.797Z,21.13
2023-02-03T14:07:33.597Z,30.73
2023-02-03T14:10:24.840Z,19.70
2023-02-03T14:12:51.201Z,30.53
2023-02-03T14:15:28.284Z,35.27
2023-02-03T14:17:58.186Z,26.77
2023-02-03T14:20:27.675Z,32.70
2023-02-03T14:23:07.674Z,25.00
2023-02-03T14:25:40.279Z,24.10
2023-02-03T14:28:11.317Z,19.67
2023-02-03T14:31:10.479Z,24.63
2023-02-03T14:33:51.544Z,24.13
2023-02-03T14:36:45.247Z,19.03
2023-02-03T14:39:17.865Z,24.80
2023-02-03T14:42:05.331Z,22.13
2023-02-03T14:44:35.273Z,16.07
2023-02-03T14:47:09.703Z,25.77
2023-02-03T14:49:44.104Z,30.07
2023-02-03T14:53:01.312Z,28.77
2023-02-03T14:55:36.311Z,23.27
2023-02-03T14:58:07.694Z,23.53
2023-02-03T15:00:35.416Z,19.60
2023-02-03T15:03:11.132Z,26.20
2023-02-03T15:05:45.522Z,18.87
2023-02-03T15:08:50.604Z,21.00
2023-02-03T15:11:22.672Z,27.90
2023-02-03T15:13:49.144Z,23.37
2023-02-03T15:16:19.993Z,22.80
2023-02-03T15:18:53.023Z,18.40
2023-02-03T15:21:20.320Z,25.83
2023-02-03T15:23:51.954Z,24.23
2023-02-03T15:26:21.066Z,19.23
2023-02-03T15:28:58.312Z,20.83
2023-02-03T15:31:35.055Z,21.37
2023-02-03T15:34:23.947Z,28.33
2023-02-03T15:36:52.512Z,26.03
2023-02-03T15:39:26.592Z,24.87
2023-02-03T15:41:54.805Z,22.67
2023-02-03T15:44:43.614Z,18.63
2023-02-03T15:47:21.169Z,28.43
2023-02-03T15:49:53.587Z,25.57
2023-02-03T15:52:22.210Z,19.03
2023-02-03T15:54:54.020Z,32.13
2023-02-03T15:57:26.980Z,28.97
2023-02-03T15:59:56.559Z,26.60
2023-02-03T16:02:29.120Z,28.47
2023-02-03T16:04:55.771Z,29.77
2023-02-03T16:07:27.764Z,27.37
2023-02-03T16:09:55.834Z,20.20
2023-02-03T16:12:27.560Z,25.70
2023-02-03T16:14:55.606Z,37.33
2023-02-03T16:17:36.693Z,35.57
2023-02-03T16:20:22.868Z,28.93
2023-02-03T16:23:16.835Z,30.37
2023-02-03T16:25:43.234Z,35.10
2023-02-03T16:28:31.791Z,28.33
2023-02-03T16:31:30.680Z,27.07
2023-02-03T16:34:15.891Z,38.10
2023-02-03T16:37:02.898Z,31.83
2023-02-03T16:39:48.175Z,24.40
2023-02-03T16:42:38.967Z,38.73
2023-02-03T16:45:36.025Z,29.57
2023-02-03T16:48:22.334Z,30.07
2023-02-03T16:50:58.249Z,38.47
2023-02-03T16:53:28.170Z,30.77
2023-02-03T16:55:56.292Z,27.43
2023-02-03T16:58:22.790Z,34.23
2023-02-03T17:00:51.555Z,24.77
2023-02-03T17:03:23.230Z,26.87
2023-02-03T17:05:50.551Z,31.80
2023-02-03T17:08:19.990Z,35.93
2023-02-03T17:10:48.025Z,28.37
2023-02-03T17:13:15.178Z,30.00
2023-02-03T17:15:49.880Z,37.33
2023-02-03T17:18:17.159Z,26.30
2023-02-03T17:20:45.235Z,35.33
2023-02-03T17:23:12.191Z,35.47
2023-02-03T17:25:39.434Z,29.17
2023-02-03T17:28:08.651Z,27.37
2023-02-03T17:30:35.672Z,32.67
2023-02-03T17:33:04.448Z,35.27
2023-02-03T17:35:31.212Z,26.83
2023-02-03T17:37:57.998Z,34.60
2023-02-03T17:54:07.395Z,34.40
2023-02-03T17:56:35.641Z,28.27
2023-02-03T17:59:03.604Z,31.20
2023-02-03T18:01:30.361Z,38.77
2023-02-03T18:04:00.025Z,29.43
2023-02-03T18:06:28.053Z,43.47
2023-02-03T18:08:54.916Z,38.37
2023-02-03T18:11:21.427Z,28.07
2023-02-03T18:13:49.002Z,27.57
2023-02-03T18:16:17.384Z,27.83
2023-02-03T18:18:44.933Z,34.13
2023-02-03T18:21:13.561Z,30.93
2023-02-03T18:23:40.440Z,32.47
2023-02-03T18:26:08.740Z,33.70
2023-02-03T18:28:35.870Z,30.63
2023-02-03T18:31:06.879Z,41.63
2023-02-03T18:33:34.284Z,29.60
2023-02-03T18:36:02.193Z,37.17
2023-02-03T18:38:31.156Z,33.70
2023-02-03T18:40:57.630Z,29.83
2023-02-03T18:43:24.029Z,32.40
2023-02-03T18:45:50.529Z,31.47
2023-02-03T18:48:16.952Z,30.23
2023-02-03T18:50:44.427Z,37.20
2023-02-03T18:53:13.641Z,26.00
2023-02-03T18:55:43.898Z,36.60
2023-02-03T18:58:13.038Z,33.17
2023-02-03T19:00:40.872Z,28.90
2023-02-03T19:03:07.951Z,24.60
2023-02-03T19:05:34.362Z,45.67
2023-02-03T19:08:00.925Z,29.47
2023-02-03T19:10:27.813Z,30.77
2023-02-03T19:12:54.637Z,35.10
2023-02-03T19:15:21.069Z,32.80
2023-02-03T19:17:47.497Z,41.63
2023-02-03T19:20:13.951Z,34.57
2023-02-03T19:22:40.365Z,37.53
2023-02-03T19:25:06.916Z,40.97
2023-02-03T19:27:33.469Z,46.73
2023-02-03T19:29:59.938Z,37.83
2023-02-03T19:32:26.706Z,35.03
2023-02-03T19:34:53.197Z,44.80
2023-02-03T19:37:19.621Z,35.70
2023-02-03T19:39:50.302Z,41.50
2023-02-03T19:42:17.259Z,37.03
2023-02-03T19:44:43.797Z,44.73
2023-02-03T19:47:10.352Z,33.77
2023-02-03T19:49:36.825Z,33.37
2023-02-03T19:52:03.473Z,39.37
2023-02-03T19:54:30.184Z,44.63
2023-02-03T19:56:57.421Z,39.97
2023-02-03T19:59:23.853Z,43.00
2023-02-03T20:01:50.370Z,40.87
2023-02-03T20:04:16.841Z,36.93
2023-02-03T20:06:43.251Z,37.17
2023-02-03T20:09:09.957Z,21.87
2023-02-03T20:11:36.469Z,33.87
2023-02-03T20:14:03.056Z,36.80
2023-02-03T20:16:29.691Z,37.37
2023-02-03T20:18:56.402Z,29.47
2023-02-03T20:21:23.120Z,36.27
2023-02-03T20:23:49.577Z,34.23
2023-02-03T20:26:15.996Z,38.30
2023-02-03T20:28:42.420Z,34.80
2023-02-03T20:31:08.938Z,29.73
2023-02-03T20:33:35.485Z,40.30
2023-02-03T20:36:02.111Z,32.23
2023-02-03T20:38:28.676Z,44.57
2023-02-03T20:40:55.270Z,39.97
2023-02-03T20:43:27.576Z,43.13
2023-02-03T20:45:54.409Z,38.53
2023-02-03T20:48:22.518Z,43.60
2023-02-03T20:50:50.159Z,37.53
2023-02-03T20:53:19.905Z,38.10
2023-02-03T20:55:47.222Z,35.17
2023-02-03T20:58:19.678Z,41.43
2023-02-03T21:00:46.862Z,37.60
2023-02-03T21:03:32.959Z,41.63
2023-02-03T21:05:59.442Z,27.80
2023-02-03T21:08:27.358Z,27.90
2023-02-03T21:10:55.096Z,31.40
2023-02-03T21:13:27.328Z,35.07
2023-02-03T21:16:07.423Z,32.23
2023-02-03T21:18:37.728Z,33.67
2023-02-03T21:21:04.875Z,31.70
2023-02-03T21:23:42.508Z,39.13
2023-02-03T21:26:20.983Z,30.83
2023-02-03T21:28:49.093Z,44.70
2023-02-03T21:31:20.017Z,43.67
2023-02-03T21:33:46.530Z,41.63
2023-02-03T21:36:16.988Z,37.67
2023-02-03T21:38:43.760Z,39.83
2023-02-03T21:41:16.674Z,26.97
2023-02-03T21:43:44.846Z,48.90
2023-02-03T21:46:28.718Z,29.83
2023-02-03T21:48:59.534Z,32.93
2023-02-03T21:51:34.893Z,42.30
2023-02-03T21:54:03.810Z,32.30
2023-02-03T21:56:41.331Z,30.70
2023-02-03T21:59:38.489Z,47.30
2023-02-03T22:02:43.098Z,44.07
2023-02-03T22:05:15.705Z,31.63
2023-02-03T22:07:42.743Z,40.77
2023-02-03T22:10:09.418Z,43.00
2023-02-03T22:12:35.882Z,37.83
2023-02-03T22:15:02.295Z,42.93
2023-02-03T22:17:29.521Z,40.00
2023-02-03T22:19:55.937Z,41.83
2023-02-03T22:22:22.375Z,21.83
2023-02-03T22:24:49.105Z,33.50
2023-02-03T22:27:15.624Z,36.60
2023-02-03T22:29:42.048Z,28.10
2023-02-03T22:32:08.735Z,23.97
2023-02-03T22:34:35.109Z,25.43
2023-02-03T22:37:01.536Z,19.60
2023-02-03T22:39:27.956Z,24.63
2023-02-03T22:41:54.396Z,29.87
2023-02-03T22:44:21.178Z,26.77
2023-02-03T22:46:47.653Z,25.67
2023-02-03T22:49:14.330Z,21.27
2023-02-03T22:51:41.050Z,27.60
2023-02-03T22:54:07.485Z,21.50
2023-02-03T22:56:33.940Z,12.37
2023-02-03T22:59:00.341Z,22.20
2023-02-03T23:01:26.762Z,18.27
2023-02-03T23:03:53.181Z,14.00
2023-02-03T23:06:19.606Z,21.43
2023-02-03T23:08:45.985Z,14.83
2023-02-03T23:11:12.679Z,15.73
2023-02-03T23:13:39.080Z,22.97
2023-02-03T23:16:05.724Z,12.03
2023-02-03T23:18:32.185Z,13.63
2023-02-03T23:20:58.601Z,15.80
2023-02-03T23:23:25.045Z,11.33
2023-02-03T23:25:51.716Z,9.33
2023-02-03T23:28:18.176Z,9.63
2023-02-03T23:30:44.722Z,16.30
2023-02-03T23:33:11.221Z,16.90
2023-02-03T23:35:46.554Z,13.67
2023-02-03T23:38:14.411Z,9.10
2023-02-03T23:40:40.835Z,8.80
2023-02-03T23:43:07.300Z,13.97
2023-02-03T23:45:33.726Z,15.30
2023-02-03T23:48:00.344Z,10.20
2023-02-03T23:50:27.040Z,17.37
2023-02-03T23:52:53.484Z,12.83
2023-02-03T23:55:23.524Z,8.80
2023-02-03T23:57:50.453Z,11.77
